createdAt,value
2023-05-25T00:02:15.647Z,3.70
2023-05-25T00:07:07.873Z,4.28
2023-05-25T00:12:00.047Z,4.47
2023-05-25T00:16:52.074Z,4.22
2023-05-25T00:21:44.591Z,3.97
2023-05-25T00:26:36.483Z,4.35
2023-05-25T00:31:28.892Z,4.53
2023-05-25T00:36:20.878Z,4.38
2023-05-25T00:41:13.441Z,4.57
2023-05-25T00:51:01.092Z,3.90
2023-05-25T00:56:00.366Z,4.03
2023-05-25T01:00:54.273Z,4.05
2023-05-25T01:05:48.587Z,3.78
2023-05-25T01:10:41.415Z,3.85
2023-05-25T01:15:34.416Z,4.05
2023-05-25T01:20:35.482Z,4.77
2023-05-25T01:25:37.460Z,3.80
2023-05-25T01:30:30.644Z,4.47
2023-05-25T01:35:23.414Z,4.18
2023-05-25T01:40:16.285Z,4.00
2023-05-25T01:45:12.590Z,4.15
2023-05-25T01:50:23.601Z,4.00
2023-05-25T01:55:16.408Z,4.03
2023-05-25T02:00:10.170Z,3.53
2023-05-25T02:05:11.810Z,3.72
2023-05-25T02:10:04.205Z,3.38
2023-05-25T02:14:56.788Z,3.72
2023-05-25T02:19:53.085Z,4.05
2023-05-25T02:24:45.246Z,3.97
2023-05-25T02:29:37.211Z,4.43
2023-05-25T02:34:29.106Z,4.33
2023-05-25T02:39:21.988Z,3.70
2023-05-25T02:44:14.294Z,4.05
2023-05-25T02:49:07.499Z,4.00
2023-05-25T02:54:00.687Z,3.85
2023-05-25T02:58:53.102Z,4.30
2023-05-25T03:04:11.334Z,4.97
2023-05-25T03:09:05.276Z,3.85
2023-05-25T03:13:57.933Z,3.47
2023-05-25T03:18:50.325Z,4.38
2023-05-25T03:23:42.318Z,3.40
2023-05-25T03:28:34.391Z,3.37
2023-05-25T03:33:26.458Z,3.65
2023-05-25T03:38:19.729Z,4.05
2023-05-25T03:43:12.595Z,3.88
2023-05-25T03:48:05.026Z,3.70
2023-05-25T03:52:57.483Z,4.15
2023-05-25T03:57:49.336Z,4.75
2023-05-25T04:02:41.629Z,3.70
2023-05-25T04:07:33.591Z,4.53
2023-05-25T04:12:26.900Z,3.90
2023-05-25T04:17:22.253Z,3.97
2023-05-25T04:22:14.507Z,3.40
2023-05-25T04:27:07.776Z,3.63
2023-05-25T04:32:00.420Z,4.05
2023-05-25T04:37:12.661Z,4.13
2023-05-25T04:42:06.157Z,3.55
2023-05-25T04:47:02.792Z,3.60
2023-05-25T04:51:58.094Z,3.60
2023-05-25T04:56:51.116Z,4.60
2023-05-25T05:01:44.833Z,3.60
2023-05-25T05:06:39.612Z,4.03
2023-05-25T05:11:32.958Z,4.03
2023-05-25T05:16:25.227Z,4.13
2023-05-25T05:21:17.473Z,3.70
2023-05-25T05:26:11.735Z,3.33
2023-05-25T05:31:04.134Z,3.70
2023-05-25T05:35:56.274Z,3.58
2023-05-25T05:40:49.460Z,3.80
2023-05-25T05:45:46.630Z,3.67
2023-05-25T05:50:41.789Z,4.07
2023-05-25T05:55:36.158Z,3.75
2023-05-25T06:05:21.180Z,4.00
2023-05-25T06:10:13.449Z,4.30
2023-05-25T06:15:06.628Z,3.40
2023-05-25T06:20:01.660Z,3.85
2023-05-25T06:24:54.209Z,3.35
2023-05-25T06:29:46.315Z,3.40
2023-05-25T06:34:38.966Z,3.55
2023-05-25T06:44:23.259Z,4.18
2023-05-25T06:49:17.131Z,3.67
2023-05-25T06:54:09.161Z,3.23
2023-05-25T06:59:01.101Z,3.60
2023-05-25T07:03:52.985Z,4.37
2023-05-25T07:08:45.009Z,3.87
2023-05-25T07:13:36.889Z,3.47
2023-05-25T07:18:28.721Z,3.50
2023-05-25T07:23:20.893Z,2.97
2023-05-25T07:28:12.877Z,3.47
2023-05-25T07:33:04.931Z,3.10
2023-05-25T07:38:01.262Z,3.75
2023-05-25T07:42:53.822Z,3.28
2023-05-25T07:52:38.640Z,3.70
2023-05-25T07:57:30.494Z,3.38
2023-05-25T08:02:22.424Z,3.57
2023-05-25T08:07:14.417Z,3.80
2023-05-25T08:12:30.115Z,3.50
2023-05-25T08:17:18.326Z,3.40
2023-05-25T08:22:10.414Z,3.72
2023-05-25T08:27:02.878Z,3.50
2023-05-25T08:31:54.836Z,3.22
2023-05-25T08:36:46.984Z,3.70
2023-05-25T08:41:44.144Z,3.67
2023-05-25T08:46:36.202Z,3.38
2023-05-25T08:51:29.157Z,3.70
2023-05-25T08:56:21.714Z,3.28
2023-05-25T09:01:15.933Z,3.30
2023-05-25T09:06:08.451Z,3.20
2023-05-25T09:11:02.437Z,4.13
2023-05-25T09:15:54.647Z,3.88
2023-05-25T09:20:47.633Z,3.05
2023-05-25T09:25:41.195Z,3.92
2023-05-25T09:30:33.414Z,3.85
2023-05-25T09:35:25.736Z,3.70
2023-05-25T09:40:17.796Z,3.38
2023-05-25T09:45:10.468Z,3.42
2023-05-25T09:50:02.875Z,3.20
2023-05-25T09:54:56.332Z,3.50
2023-05-25T09:59:48.551Z,3.38
2023-05-25T10:04:40.737Z,3.88
2023-05-25T10:09:38.036Z,3.50
2023-05-25T10:14:30.496Z,3.47
2023-05-25T10:19:28.739Z,3.58
2023-05-25T10:24:46.506Z,4.05
2023-05-25T10:29:39.596Z,3.78
2023-05-25T10:34:32.047Z,3.70
2023-05-25T10:39:25.179Z,3.90
2023-05-25T10:44:17.616Z,3.20
2023-05-25T10:49:10.743Z,3.85
2023-05-25T10:54:03.026Z,4.00
2023-05-25T10:58:55.035Z,3.53
2023-05-25T11:03:58.092Z,3.20
2023-05-25T11:08:59.471Z,4.10
2023-05-25T11:13:51.556Z,3.40
2023-05-25T11:18:58.697Z,3.33
2023-05-25T11:24:00.065Z,3.85
2023-05-25T11:28:53.251Z,3.42
2023-05-25T11:33:45.258Z,4.30
2023-05-25T11:38:52.815Z,3.43
2023-05-25T11:43:54.477Z,3.30
2023-05-25T11:48:52.893Z,3.47
2023-05-25T11:53:45.645Z,4.03
2023-05-25T11:58:37.652Z,3.00
2023-05-25T12:03:33.134Z,3.65
2023-05-25T12:08:35.346Z,4.05
2023-05-25T12:13:27.314Z,3.80
2023-05-25T12:18:19.627Z,4.10
2023-05-25T12:23:11.656Z,4.05
2023-05-25T12:28:14.729Z,3.47
2023-05-25T12:33:07.430Z,3.83
2023-05-25T12:38:12.812Z,3.53
2023-05-25T12:43:05.216Z,3.70
2023-05-25T12:47:58.746Z,3.97
2023-05-25T12:52:51.954Z,3.90
2023-05-25T12:57:44.030Z,4.17
2023-05-25T13:02:35.973Z,3.15
2023-05-25T13:07:29.018Z,4.77
2023-05-25T13:12:21.070Z,3.75
2023-05-25T13:17:13.054Z,3.53
2023-05-25T13:22:05.419Z,3.80
2023-05-25T13:26:57.404Z,3.78
2023-05-25T13:31:49.349Z,3.50
2023-05-25T13:36:41.512Z,4.20
2023-05-25T13:41:33.472Z,3.58
2023-05-25T13:46:34.127Z,3.90
2023-05-25T13:51:26.922Z,4.82
2023-05-25T13:56:19.230Z,3.80
2023-05-25T14:01:11.311Z,3.35
2023-05-25T14:06:03.505Z,3.80
2023-05-25T14:10:55.543Z,3.78
2023-05-25T14:15:47.813Z,3.83
2023-05-25T14:20:42.530Z,3.20
2023-05-25T14:25:34.731Z,3.20
2023-05-25T14:30:26.737Z,4.13
2023-05-25T14:35:18.977Z,3.97
2023-05-25T14:40:11.642Z,3.42
2023-05-25T14:49:55.948Z,3.33
2023-05-25T14:54:47.908Z,3.70
2023-05-25T14:59:39.843Z,4.03
2023-05-25T15:04:31.835Z,4.17
2023-05-25T15:09:23.876Z,4.18
2023-05-25T15:14:16.526Z,3.73
2023-05-25T15:24:03.368Z,3.40
2023-05-25T15:28:55.350Z,4.47
2023-05-25T15:33:54.300Z,5.00
2023-05-25T15:43:42.422Z,3.70
2023-05-25T15:48:34.326Z,3.53
2023-05-25T15:53:26.274Z,3.30
2023-05-25T15:58:18.241Z,3.83
2023-05-25T16:03:10.231Z,3.63
2023-05-25T16:08:02.259Z,3.40
2023-05-25T16:12:54.196Z,3.40
2023-05-25T16:17:46.138Z,3.90
2023-05-25T16:22:38.117Z,3.53
2023-05-25T16:27:30.259Z,3.57
2023-05-25T16:32:22.325Z,3.40
2023-05-25T16:37:14.412Z,3.15
2023-05-25T16:42:06.834Z,3.67
2023-05-25T16:46:58.703Z,3.50
2023-05-25T16:51:50.800Z,4.07
2023-05-25T16:56:42.881Z,4.78
2023-05-25T17:01:34.878Z,5.50
2023-05-25T17:06:26.969Z,5.63
2023-05-25T17:11:19.291Z,6.50
2023-05-25T17:16:11.241Z,5.38
2023-05-25T17:21:03.344Z,9.33
2023-05-25T17:25:56.810Z,5.53
2023-05-25T17:30:48.825Z,7.25
2023-05-25T17:35:40.946Z,5.33
2023-05-25T17:40:32.898Z,6.47
2023-05-25T17:45:24.931Z,6.70
2023-05-25T17:50:16.934Z,5.63
2023-05-25T17:55:09.049Z,5.83
2023-05-25T18:00:00.984Z,5.78
2023-05-25T18:04:53.063Z,6.10
2023-05-25T18:09:45.010Z,4.80
2023-05-25T18:14:37.983Z,5.10
2023-05-25T18:19:29.939Z,6.13
2023-05-25T18:24:21.928Z,6.57
2023-05-25T18:29:13.870Z,5.67
2023-05-25T18:34:06.960Z,8.10
2023-05-25T18:38:58.813Z,5.85
2023-05-25T18:43:50.807Z,5.40
2023-05-25T18:48:42.770Z,6.83
2023-05-25T18:53:34.938Z,5.40
2023-05-25T18:58:27.455Z,5.35
2023-05-25T19:03:19.473Z,5.68
2023-05-25T19:08:11.403Z,5.57
2023-05-25T19:13:03.372Z,5.87
2023-05-25T19:17:55.361Z,5.20
2023-05-25T19:22:47.817Z,6.03
2023-05-25T19:27:39.733Z,5.57
2023-05-25T19:32:31.845Z,5.90
2023-05-25T19:37:23.909Z,4.85
2023-05-25T19:42:15.868Z,5.13
2023-05-25T19:47:07.828Z,4.40
2023-05-25T19:51:59.886Z,5.17
2023-05-25T19:56:52.293Z,4.23
2023-05-25T20:01:44.168Z,6.03
2023-05-25T20:06:37.593Z,4.93
2023-05-25T20:11:29.565Z,5.35
2023-05-25T20:16:22.333Z,6.13
2023-05-25T20:21:14.445Z,4.65
2023-05-25T20:26:07.060Z,4.70
2023-05-25T20:35:51.291Z,4.97
2023-05-25T20:40:43.264Z,5.25
2023-05-25T20:45:35.193Z,5.37
2023-05-25T20:50:27.938Z,4.57
2023-05-25T20:55:20.375Z,5.03
2023-05-25T21:00:13.253Z,5.20
2023-05-25T21:05:05.412Z,4.53
2023-05-25T21:09:59.513Z,4.43
2023-05-25T21:14:51.461Z,4.47
2023-05-25T21:19:43.447Z,4.80
2023-05-25T21:24:35.339Z,4.53
2023-05-25T21:29:27.298Z,5.40
2023-05-25T21:34:19.216Z,4.30
2023-05-25T21:39:11.135Z,4.00
2023-05-25T21:44:03.026Z,5.80
2023-05-25T21:48:54.960Z,4.30
2023-05-25T21:53:46.942Z,4.63
2023-05-25T21:58:38.884Z,6.27
2023-05-25T22:03:31.013Z,4.87
2023-05-25T22:08:22.964Z,4.75
2023-05-25T22:13:14.768Z,4.20
2023-05-25T22:18:06.743Z,4.27
2023-05-25T22:22:58.758Z,4.20
2023-05-25T22:27:50.709Z,4.77
2023-05-25T22:32:42.676Z,4.10
2023-05-25T22:37:34.653Z,4.40
2023-05-25T22:42:26.497Z,5.30
2023-05-25T22:47:18.486Z,5.03
2023-05-25T22:52:10.511Z,5.57
2023-05-25T22:57:02.426Z,4.70
2023-05-25T23:01:54.489Z,4.17
2023-05-25T23:06:46.536Z,4.45
2023-05-25T23:11:38.447Z,5.23
2023-05-25T23:16:30.556Z,4.40
2023-05-25T23:21:22.484Z,4.10
2023-05-25T23:26:14.621Z,4.27
2023-05-25T23:31:06.626Z,4.77
2023-05-25T23:35:59.435Z,4.40
2023-05-25T23:45:43.384Z,5.32
2023-05-25T23:55:28.407Z,4.65
